Aérodrome :
LOGIN :

S'inscrire | Disclaimer

   EN    FR    IT 

 










Légende :    VFR   VFR Marginal   IFR   IFR Intensif   IFR Très Intensif
Visi : 
Plafond : 
>= 8 km
>= 3000ft
5 à 8 km
1000 à 3000 ft
1500m à 5 km
500 à 1000 ft
800 à 1500m
200 à 500 ft
< 800m
< 200 ft
Symboles :   Orages  Brouillard  Fortes neiges  Fortes précipitations  Vent > 20 kt
SIGMETs :   Divers  Orages  Givrage  Turbulence  Onde Orograph.  Cendres Volcan.






- Altitude de l'aérodrome : 313 ft
- Code IATA : LEH


LFOH - Le Havre Octeville

DERNIER METAR :
  • 281200Z AUTO 06021KT 5000 BR BKN014 10/06 Q1022 BECMG 04020G30KT SCT016

METARs EXPIRÉS :
  • 281130Z AUTO 06019KT 5000 BR BKN014 10/07 Q1022 BECMG 04020G30KT SCT016
  • 281100Z AUTO 06018KT 5000 BR FEW016 10/06 Q1022 BECMG 05020G30KT
  • 281030Z AUTO 06019KT 5000 BR SCT015 10/06 Q1022 BECMG 05020G30KT
  • 281000Z AUTO 06019KT 5000 BR BKN014 09/06 Q1022 BECMG 05020G30KT BKN025
  • 280930Z AUTO 07017KT 4700 BR BKN013 10/07 Q1022 BECMG 01020G30KT 9999 NSW BKN025

TAF AMD TAF LFOH
Valide du 28 à 12h jusqu'au 29 à 12h UTC


281209Z 2812/2912 04020G30KT 5000 BR BKN014
BECMG 2812/2814 7000 NSW SCT016
PROB40
TEMPO 2818/2912 04020G40KT
TEMPO 2900/2912 4000 SHRA
ATIS : +33 2 35 54 64 93



MET'MAP, la Météo Aéronautique d'un coup d'oeil ! - Copyright ORBIFLY Décembre 2007 - Disclaimer

ORBIFLY MET'MAP TEAM :

Programmation & Développement : Alexandra Zaïnal
Sur une idée originale de : Baudouin d'Aumeries
Assistance à la programmation : Marc-Olivier Méhu
Soutien technique & logistique : Manuel Goepfert

Contact : metmap@orbifly.com




SOURCES & CREDITS :

   NOAA